createdAt,value
2022-08-22T06:14:04.936Z,100.00
2022-08-22T06:24:04.739Z,100.00
2022-08-22T06:34:04.742Z,96.29
2022-08-22T06:44:04.876Z,93.53
2022-08-22T06:54:04.719Z,95.50
2022-08-22T07:04:04.903Z,85.94
2022-08-22T07:14:04.947Z,86.88
2022-08-22T07:24:05.010Z,79.72
2022-08-22T07:34:04.963Z,72.20
2022-08-22T07:44:05.203Z,66.14
2022-08-22T07:54:05.083Z,65.83
2022-08-22T08:04:04.989Z,58.11
2022-08-22T08:14:05.021Z,56.16
2022-08-22T08:24:04.926Z,56.54
2022-08-22T08:34:05.115Z,55.50
2022-08-22T08:44:05.075Z,51.41
2022-08-22T08:54:05.055Z,51.09
2022-08-22T09:04:05.083Z,50.92
2022-08-22T09:14:05.076Z,49.19
2022-08-22T09:24:05.293Z,47.27
2022-08-22T09:40:15.704Z,47.01
2022-08-22T09:44:05.176Z,44.92
2022-08-22T09:54:05.152Z,42.17
2022-08-22T10:04:05.246Z,44.13
2022-08-22T10:14:05.215Z,42.55
2022-08-22T10:24:07.288Z,43.69
2022-08-22T10:34:05.158Z,41.91
2022-08-22T10:44:05.196Z,39.14
2022-08-22T10:54:05.425Z,39.63
2022-08-22T11:04:05.274Z,36.76
2022-08-22T11:14:05.466Z,36.68
2022-08-22T11:24:05.376Z,36.40
2022-08-22T11:34:05.816Z,37.31
2022-08-22T11:44:05.363Z,35.87
2022-08-22T11:54:05.463Z,34.48
2022-08-22T12:04:05.575Z,36.39
2022-08-22T12:14:06.665Z,35.40
2022-08-22T12:24:05.881Z,34.99
2022-08-22T12:34:06.549Z,34.30
2022-08-22T12:44:05.525Z,31.34
2022-08-22T12:54:05.537Z,32.54
2022-08-22T13:04:05.588Z,34.09
2022-08-22T13:14:05.951Z,34.24
2022-08-22T13:24:05.671Z,33.04
2022-08-22T13:34:05.612Z,33.91
2022-08-22T13:44:05.678Z,33.26
2022-08-22T13:54:11.281Z,33.01
2022-08-22T14:04:05.550Z,31.75
2022-08-22T14:14:05.457Z,31.96
2022-08-22T14:24:05.576Z,31.63
2022-08-22T14:34:05.584Z,30.10
2022-08-22T14:44:05.802Z,30.93
2022-08-22T14:54:05.886Z,30.22
2022-08-22T15:04:05.710Z,31.41
2022-08-22T15:14:05.601Z,30.53
2022-08-22T15:24:05.755Z,30.85
2022-08-22T15:34:05.881Z,30.15
2022-08-22T15:44:05.848Z,31.27
2022-08-22T15:54:16.397Z,31.00
2022-08-22T16:04:05.663Z,30.52
2022-08-22T16:14:05.794Z,30.67
2022-08-22T16:24:05.592Z,31.14
2022-08-22T16:34:05.780Z,31.43
2022-08-22T16:44:05.817Z,31.70
2022-08-22T16:54:05.885Z,32.36
2022-08-22T17:04:05.953Z,32.17
2022-08-22T17:14:06.083Z,34.46
2022-08-22T17:24:05.845Z,35.05
2022-08-22T17:34:05.768Z,36.20
2022-08-22T17:44:06.092Z,37.92
2022-08-22T17:54:05.778Z,38.69
2022-08-22T18:04:06.042Z,39.29
2022-08-22T18:14:05.969Z,42.17
2022-08-22T18:24:06.033Z,42.85
2022-08-22T18:34:05.834Z,45.84
2022-08-22T18:44:05.710Z,47.44
2022-08-22T18:54:05.952Z,49.17
2022-08-22T19:04:06.101Z,49.66
2022-08-22T19:14:06.337Z,51.14
